createdAt,value
2019-03-03T00:04:21.881Z,18.57
2019-03-03T00:09:23.926Z,18.27
2019-03-03T00:14:25.968Z,18.90
2019-03-03T00:19:28.051Z,17.97
2019-03-03T00:24:30.127Z,19.27
2019-03-03T00:29:32.179Z,17.67
2019-03-03T00:34:34.248Z,17.40
2019-03-03T00:39:49.421Z,17.93
2019-03-03T00:45:00.972Z,15.50
2019-03-03T00:50:17.446Z,16.63
2019-03-03T00:55:37.881Z,14.00
2019-03-03T01:00:47.413Z,14.83
2019-03-03T01:06:03.809Z,13.27
2019-03-03T01:11:19.109Z,13.40
2019-03-03T01:16:38.038Z,12.70
2019-03-03T01:21:59.732Z,13.23
2019-03-03T01:27:01.845Z,11.20
2019-03-03T01:32:04.122Z,11.30
2019-03-03T01:37:08.581Z,10.53
2019-03-03T01:42:10.693Z,9.97
2019-03-03T01:47:12.786Z,8.53
2019-03-03T01:52:14.853Z,9.27
2019-03-03T01:57:16.992Z,9.33
2019-03-03T02:02:19.300Z,7.87
2019-03-03T02:07:21.474Z,8.03
2019-03-03T02:12:23.503Z,8.00
2019-03-03T02:17:25.584Z,8.40
2019-03-03T02:22:27.651Z,7.93
2019-03-03T02:27:29.753Z,6.77
2019-03-03T02:32:31.789Z,6.90
2019-03-03T02:37:33.870Z,6.23
2019-03-03T02:42:38.041Z,7.00
2019-03-03T02:47:40.135Z,6.57
2019-03-03T02:52:42.493Z,6.60
2019-03-03T02:57:44.577Z,6.50
2019-03-03T03:03:06.922Z,6.13
2019-03-03T03:08:11.659Z,5.70
2019-03-03T03:13:51.591Z,6.00
2019-03-03T03:19:22.151Z,5.70
2019-03-03T03:24:49.968Z,4.93
2019-03-03T03:30:10.598Z,5.50
2019-03-03T03:35:18.184Z,5.40
2019-03-03T03:40:42.536Z,5.50
2019-03-03T03:46:03.086Z,4.73
2019-03-03T03:51:27.203Z,4.53
2019-03-03T03:56:47.294Z,4.07
2019-03-03T04:02:08.992Z,3.93
2019-03-03T04:07:27.147Z,4.00
2019-03-03T04:13:06.828Z,4.33
2019-03-03T04:18:33.664Z,3.83
2019-03-03T04:23:46.375Z,3.73
2019-03-03T04:29:06.730Z,3.03
2019-03-03T04:34:17.585Z,3.27
2019-03-03T04:39:45.935Z,3.20
2019-03-03T04:45:19.717Z,3.13
2019-03-03T04:50:42.772Z,3.17
2019-03-03T04:56:04.455Z,3.23
2019-03-03T05:01:44.283Z,2.90
2019-03-03T05:07:08.650Z,3.60
2019-03-03T05:12:44.204Z,3.10
2019-03-03T05:17:54.087Z,2.80
2019-03-03T05:22:56.126Z,2.53
2019-03-03T05:27:58.160Z,2.93
2019-03-03T05:33:00.133Z,2.40
2019-03-03T05:38:02.284Z,3.00
2019-03-03T05:43:04.373Z,2.93
2019-03-03T05:48:06.552Z,2.80
2019-03-03T05:53:08.631Z,2.73
2019-03-03T05:58:10.747Z,3.40
2019-03-03T06:03:12.813Z,3.00
2019-03-03T06:08:14.871Z,3.13
2019-03-03T06:13:16.854Z,3.10
2019-03-03T06:18:18.911Z,3.30
2019-03-03T06:23:20.948Z,3.40
2019-03-03T06:28:23.084Z,3.40
2019-03-03T06:33:25.191Z,3.30
2019-03-03T06:38:27.281Z,3.83
2019-03-03T06:43:29.357Z,3.50
2019-03-03T06:48:31.422Z,3.93
2019-03-03T06:53:33.484Z,3.70
2019-03-03T06:58:35.576Z,4.03
2019-03-03T07:03:37.658Z,4.10
2019-03-03T07:08:39.742Z,4.13
2019-03-03T07:13:41.859Z,4.10
2019-03-03T07:18:43.940Z,3.73
2019-03-03T07:23:46.020Z,4.03
2019-03-03T07:28:48.255Z,3.97
2019-03-03T07:33:55.820Z,3.80
2019-03-03T07:38:57.959Z,4.07
2019-03-03T07:44:00.077Z,3.77
2019-03-03T07:49:02.174Z,3.80
2019-03-03T07:54:04.199Z,3.70
2019-03-03T07:59:06.295Z,4.30
2019-03-03T08:04:08.393Z,3.83
2019-03-03T08:09:10.553Z,3.63
2019-03-03T08:14:12.667Z,3.97
2019-03-03T08:19:14.738Z,3.50
2019-03-03T08:24:16.839Z,4.17
2019-03-03T08:29:18.899Z,3.53
2019-03-03T08:34:20.942Z,3.50
2019-03-03T08:39:23.043Z,3.70
2019-03-03T08:44:45.146Z,3.07
2019-03-03T08:49:58.199Z,3.07
2019-03-03T08:55:31.618Z,2.80
2019-03-03T09:00:39.367Z,3.37
2019-03-03T09:06:16.227Z,3.70
2019-03-03T09:11:46.526Z,2.73
2019-03-03T09:17:18.219Z,2.70
2019-03-03T09:22:39.899Z,2.57
2019-03-03T09:28:04.446Z,2.30
2019-03-03T09:33:26.820Z,2.77
2019-03-03T09:38:36.839Z,2.73
2019-03-03T09:43:58.549Z,2.70
2019-03-03T09:49:17.251Z,2.57
2019-03-03T09:54:27.312Z,2.87
2019-03-03T09:59:52.220Z,2.57
2019-03-03T10:05:06.198Z,2.50
2019-03-03T10:10:38.590Z,2.60
2019-03-03T10:15:48.278Z,2.77
2019-03-03T10:21:08.645Z,2.37
2019-03-03T10:26:24.084Z,2.03
2019-03-03T10:31:57.931Z,2.67
2019-03-03T10:37:27.023Z,1.90
2019-03-03T10:42:39.022Z,3.17
2019-03-03T10:48:12.507Z,2.17
2019-03-03T10:53:29.038Z,2.40
2019-03-03T10:59:08.763Z,2.60
2019-03-03T11:04:48.427Z,2.63
2019-03-03T11:10:01.731Z,2.50
2019-03-03T11:15:33.778Z,2.00
2019-03-03T11:20:46.261Z,2.57
2019-03-03T11:26:26.100Z,2.80
2019-03-03T11:31:53.125Z,3.10
2019-03-03T11:37:06.659Z,3.03
2019-03-03T11:42:15.977Z,2.90
2019-03-03T11:47:36.296Z,2.70
2019-03-03T11:53:00.553Z,2.60
2019-03-03T11:58:17.016Z,3.17
2019-03-03T12:03:47.059Z,2.90
2019-03-03T12:09:07.209Z,2.70
2019-03-03T12:14:17.781Z,3.13
2019-03-03T12:19:37.082Z,3.80
2019-03-03T12:24:58.794Z,2.50
2019-03-03T12:30:09.679Z,3.17
2019-03-03T12:35:40.297Z,2.80
2019-03-03T12:40:55.298Z,2.60
2019-03-03T12:46:15.618Z,2.80
2019-03-03T12:51:37.328Z,2.97
2019-03-03T12:56:54.523Z,3.23
2019-03-03T13:02:13.853Z,3.47
2019-03-03T13:07:34.176Z,2.97
2019-03-03T13:12:54.215Z,2.53
2019-03-03T13:18:07.026Z,3.10
2019-03-03T13:23:34.285Z,2.67
2019-03-03T13:28:58.882Z,2.50
2019-03-03T13:34:16.088Z,2.73
2019-03-03T13:39:37.763Z,3.10
2019-03-03T13:44:39.854Z,2.70
2019-03-03T13:49:41.931Z,2.60
2019-03-03T13:54:43.972Z,3.23
2019-03-03T13:59:46.074Z,2.40
2019-03-03T14:04:48.095Z,3.20
2019-03-03T14:09:50.141Z,2.87
2019-03-03T14:14:52.182Z,2.63
2019-03-03T14:19:54.346Z,2.50
2019-03-03T14:24:56.501Z,2.77
2019-03-03T14:29:58.560Z,2.53
2019-03-03T14:35:00.591Z,3.20
2019-03-03T14:40:03.381Z,2.60
2019-03-03T14:45:06.188Z,2.90
2019-03-03T14:50:11.378Z,2.50
2019-03-03T14:55:14.892Z,2.63
2019-03-03T15:00:31.852Z,2.43
2019-03-03T15:05:34.040Z,2.33
2019-03-03T15:10:38.568Z,2.73
2019-03-03T15:15:40.668Z,2.13
2019-03-03T15:20:42.687Z,2.57
2019-03-03T15:25:44.748Z,2.37
2019-03-03T15:30:46.901Z,1.90
2019-03-03T15:35:50.701Z,2.10
2019-03-03T15:40:53.092Z,1.90
2019-03-03T15:46:00.566Z,2.53
2019-03-03T15:51:02.809Z,2.37
2019-03-03T15:56:04.911Z,2.20
2019-03-03T16:01:12.481Z,1.73
2019-03-03T16:06:15.071Z,2.10
2019-03-03T16:11:17.407Z,2.77
2019-03-03T16:16:19.493Z,2.00
2019-03-03T16:21:21.557Z,2.23
2019-03-03T16:26:23.607Z,2.43
2019-03-03T16:31:25.664Z,2.30
2019-03-03T16:36:27.688Z,2.20
2019-03-03T16:41:29.763Z,1.93
2019-03-03T16:46:31.896Z,2.60
2019-03-03T16:51:33.966Z,2.97
2019-03-03T16:56:36.048Z,2.60
2019-03-03T17:01:38.158Z,2.50
2019-03-03T17:06:40.315Z,2.60
2019-03-03T17:11:42.423Z,2.20
2019-03-03T17:16:44.515Z,2.03
2019-03-03T17:21:46.585Z,2.50
2019-03-03T17:26:48.606Z,2.50
2019-03-03T17:31:50.636Z,2.63
2019-03-03T17:36:52.708Z,2.50
2019-03-03T17:41:56.088Z,2.00
2019-03-03T17:46:58.159Z,2.53
2019-03-03T17:52:00.214Z,2.20
2019-03-03T17:57:02.373Z,2.50
2019-03-03T18:02:04.616Z,2.40
2019-03-03T18:07:06.654Z,1.90
2019-03-03T18:12:08.783Z,2.33
2019-03-03T18:17:10.802Z,1.87
2019-03-03T18:22:12.824Z,1.90
2019-03-03T18:27:15.094Z,2.17
2019-03-03T18:32:17.156Z,2.23
2019-03-03T18:37:19.186Z,2.33
2019-03-03T18:42:21.422Z,2.03
2019-03-03T18:47:23.509Z,2.17
2019-03-03T18:52:25.602Z,2.77
2019-03-03T18:57:27.662Z,2.60
2019-03-03T19:02:29.694Z,1.97
2019-03-03T19:07:31.723Z,2.40
2019-03-03T19:12:33.815Z,2.00
2019-03-03T19:17:36.000Z,2.60
2019-03-03T19:22:39.432Z,2.53
2019-03-03T19:27:41.484Z,2.10
2019-03-03T19:32:43.995Z,2.77
2019-03-03T19:37:46.273Z,2.20
2019-03-03T19:42:48.338Z,2.67
2019-03-03T19:47:50.470Z,2.13
2019-03-03T19:52:52.501Z,2.60
2019-03-03T19:57:54.578Z,2.97
2019-03-03T20:02:56.631Z,2.50
2019-03-03T20:07:58.657Z,2.50
2019-03-03T20:13:00.818Z,2.47
2019-03-03T20:18:03.550Z,2.07
2019-03-03T20:23:05.654Z,2.27
2019-03-03T20:28:07.673Z,2.20
2019-03-03T20:33:09.821Z,2.00
2019-03-03T20:38:11.885Z,2.43
2019-03-03T20:43:14.076Z,2.50
2019-03-03T20:48:16.155Z,2.40
2019-03-03T20:53:19.483Z,2.10
2019-03-03T20:58:21.731Z,2.20
2019-03-03T21:03:26.188Z,2.20
2019-03-03T21:08:28.217Z,1.97
2019-03-03T21:13:30.241Z,2.07
2019-03-03T21:18:32.295Z,1.80
2019-03-03T21:23:34.331Z,3.27
2019-03-03T21:28:36.392Z,2.20
2019-03-03T21:33:39.240Z,2.20
2019-03-03T21:38:41.366Z,1.90
2019-03-03T21:43:43.627Z,2.13
2019-03-03T21:48:45.772Z,2.30
2019-03-03T21:53:47.843Z,2.20
2019-03-03T21:58:49.940Z,2.37
2019-03-03T22:03:52.084Z,1.77
2019-03-03T22:08:54.190Z,2.60
2019-03-03T22:13:56.367Z,2.60
2019-03-03T22:18:58.482Z,2.07
2019-03-03T22:24:00.579Z,2.20
2019-03-03T22:29:02.819Z,2.27
2019-03-03T22:34:04.852Z,2.10
2019-03-03T22:39:07.905Z,2.07
2019-03-03T22:44:10.088Z,2.40
2019-03-03T22:49:12.137Z,2.00
2019-03-03T22:54:14.232Z,1.60
2019-03-03T22:59:16.306Z,2.00
2019-03-03T23:04:51.397Z,1.70
2019-03-03T23:10:25.284Z,1.97
2019-03-03T23:16:24.601Z,2.37
2019-03-03T23:22:17.715Z,2.10
2019-03-03T23:27:19.767Z,1.97
2019-03-03T23:32:21.888Z,2.20
2019-03-03T23:37:23.959Z,2.57
2019-03-03T23:42:26.020Z,2.10
2019-03-03T23:47:28.077Z,2.40
2019-03-03T23:52:30.141Z,2.23
2019-03-03T23:57:32.196Z,2.40
